サンパウロ/グアルーリョス の空港の天気 - METARとTAF

グアルーリョス国際空港 (サンパウロ) ( SBGR / GRU ) - ブラジル サンパウロ州サンパウロ市
飛行場実況気象(Metar)
観測時間05/22 22:00 BRT (05/23 01:00 UTC)
風向・風速静穏 0m/s
視程4000m
天気現象もや
なし
気温13℃
湿度100%
気圧1022hPa
METARSBGR 230100Z 00000KT 4000 BR NSC 13/13 Q1022
過去の天気等 Google飛行場航空写真 Wunderground天気予報

過去48時間のMETAR

飛行場予報(TAF)
発表時間: 5/22 19:00 BRT (5/22 22:00 UTC)
予報対象時間: 22日21時 BRT ~ 24日3時 BRT
風向・風速東 1m/s
視程10km以上
なし
22日23時 BRT ~ 23日1時 BRT に徐々に
風向・風速東北東 2m/s
視程7,000m
なし
23日5時 BRT から 確率 30% で
視程600m
天気現象
全天を覆う雲 雲底高度 30m
23日10時 BRT ~ 23日12時 BRT に徐々に
風向・風速東南東 3m/s
視程10km以上
なし
23日13時 BRT ~ 23日15時 BRT に徐々に
風向・風速南南東 3m/s
23日18時 BRT ~ 23日20時 BRT に徐々に
風向・風速東 2m/s
TAF SBGR 222200Z 2300/2406 08002KT CAVOK TN10/2309Z TX22/2317Z
BECMG 2302/2304 06003KT 7000 NSC
PROB30 2308/2312 0600 FG OVC001
BECMG 2313/2315 12005KT CAVOK
BECMG 2316/2318 15006KT
BECMG 2321/2323 08004KT RMK PGE